Time;durP1;ratioP1;P1;durP2;ratioP2;P2;SDS_P1;SDS_P2;PMS_P1;PMS_P2;Temp;Humidity;BMP_temperature;BMP_pressure;BME280_temperature;BME280_humidity;BME280_pressure;Samples;Min_cycle;Max_cycle;Signal;HPM_P1;HPM_P2
2022/07/10 00:00:37;;;;;;;0.90;0.80;;;15.20;93.70;;;;;;4992789;28;20178;-82
2022/07/10 00:03:04;;;;;;;1.00;0.90;;;15.20;93.20;;;;;;5008274;28;20311;-83
2022/07/10 00:05:31;;;;;;;0.70;0.70;;;15.10;93.20;;;;;;4995976;28;20176;-82
2022/07/10 00:07:56;;;;;;;0.80;0.80;;;15.10;93.20;;;;;;4995890;28;21002;-81
2022/07/10 00:10:23;;;;;;;1.00;0.90;;;15.10;93.00;;;;;;4996209;28;20794;-82
2022/07/10 00:12:50;;;;;;;0.80;0.80;;;15.10;92.90;;;;;;4996065;28;20729;-82
2022/07/10 00:15:17;;;;;;;1.00;0.90;;;15.10;93.20;;;;;;4996087;28;20415;-82
2022/07/10 00:17:43;;;;;;;0.90;0.80;;;15.10;93.40;;;;;;4995874;28;20440;-82
2022/07/10 00:20:10;;;;;;;0.93;0.83;;;15.00;93.70;;;;;;4995943;28;20975;-82
2022/07/10 00:22:37;;;;;;;0.90;0.80;;;15.10;93.70;;;;;;5013669;28;20444;-82
2022/07/10 00:25:09;;;;;;;0.87;0.83;;;15.10;93.40;;;;;;4995630;28;20444;-82
2022/07/10 00:27:35;;;;;;;1.00;0.90;;;15.00;93.10;;;;;;4995794;28;20919;-82
2022/07/10 00:30:01;;;;;;;0.80;0.80;;;15.00;93.60;;;;;;4995916;28;20559;-82
2022/07/10 00:32:27;;;;;;;0.90;0.80;;;15.00;93.40;;;;;;4996904;28;20200;-82
2022/07/10 00:34:53;;;;;;;0.97;0.87;;;15.00;93.10;;;;;;4997036;28;20439;-81
2022/07/10 00:37:21;;;;;;;1.10;1.00;;;15.00;93.40;;;;;;5008812;28;20201;-81
2022/07/10 00:39:47;;;;;;;0.90;0.80;;;15.00;93.20;;;;;;5013459;28;20930;-81
2022/07/10 00:42:15;;;;;;;1.40;0.87;;;15.00;93.20;;;;;;5014393;28;20435;-81
2022/07/10 00:44:45;;;;;;;1.10;1.00;;;15.00;93.20;;;;;;4997434;28;20775;-81
2022/07/10 00:47:19;;;;;;;0.93;0.83;;;15.00;93.50;;;;;;4992997;28;20440;-81
2022/07/10 00:49:47;;;;;;;1.70;1.20;;;15.00;93.70;;;;;;5004878;28;20550;-80
2022/07/10 00:52:14;;;;;;;1.00;0.80;;;15.00;93.60;;;;;;5009346;28;20419;-81
2022/07/10 00:54:43;;;;;;;0.70;0.70;;;15.00;94.00;;;;;;4996508;28;20440;-80
2022/07/10 00:57:09;;;;;;;0.83;0.77;;;15.00;94.00;;;;;;4996640;28;20416;-81
2022/07/10 00:59:35;;;;;;;0.70;0.70;;;15.00;93.90;;;;;;4997207;28;20514;-81
2022/07/10 01:02:18;;;;;;;0.90;0.80;;;14.90;93.80;;;;;;4996353;28;20499;-81
2022/07/10 01:04:59;;;;;;;0.90;0.80;;;14.90;93.90;;;;;;4997268;28;20477;-81
2022/07/10 01:07:27;;;;;;;0.90;0.80;;;14.90;93.80;;;;;;4996475;28;20459;-81
2022/07/10 01:09:59;;;;;;;1.40;1.30;;;14.80;93.70;;;;;;5006061;28;20452;-81
2022/07/10 01:12:28;;;;;;;0.93;0.87;;;14.80;94.00;;;;;;4993640;28;20511;-80
2022/07/10 01:14:55;;;;;;;0.70;0.70;;;14.80;94.00;;;;;;4997209;28;20428;-81
2022/07/10 01:17:29;;;;;;;1.40;1.00;;;14.80;94.60;;;;;;4979809;28;20448;-81
2022/07/10 01:19:55;;;;;;;1.00;0.90;;;14.80;94.60;;;;;;4994384;28;20470;-81
2022/07/10 01:22:46;;;;;;;0.93;0.87;;;14.80;94.60;;;;;;4985095;28;20419;-81
2022/07/10 01:25:25;;;;;;;1.00;0.90;;;14.80;94.70;;;;;;4996743;28;20420;-81
2022/07/10 01:27:56;;;;;;;1.00;0.90;;;14.80;94.80;;;;;;4996856;28;20455;-81
2022/07/10 01:30:28;;;;;;;1.30;1.20;;;14.80;94.50;;;;;;4996424;28;20423;-82
2022/07/10 01:33:07;;;;;;;0.90;0.80;;;14.80;94.40;;;;;;4994731;28;20905;-82
2022/07/10 01:35:47;;;;;;;1.10;1.00;;;14.80;94.30;;;;;;4997025;28;20781;-82
2022/07/10 01:38:28;;;;;;;1.00;0.90;;;14.80;94.20;;;;;;4999454;28;20443;-81
2022/07/10 01:40:57;;;;;;;0.90;0.80;;;14.80;94.20;;;;;;4995222;28;20797;-82
2022/07/10 01:44:07;;;;;;;0.80;0.80;;;14.80;94.20;;;;;;4995203;28;20477;-82
2022/07/10 01:46:48;;;;;;;1.00;0.90;;;14.70;94.20;;;;;;4985731;28;20408;-82
2022/07/10 01:49:17;;;;;;;1.57;0.90;;;14.70;94.20;;;;;;4994558;28;21088;-82
2022/07/10 01:52:07;;;;;;;1.00;0.90;;;14.70;94.60;;;;;;4994185;28;20444;-81
2022/07/10 01:54:56;;;;;;;0.83;0.80;;;14.70;94.60;;;;;;4983582;28;20839;-82
2022/07/10 01:57:27;;;;;;;0.70;0.70;;;14.70;94.50;;;;;;4998680;28;20432;-82
2022/07/10 01:59:57;;;;;;;1.00;0.90;;;14.70;94.70;;;;;;5014320;28;20890;-81
2022/07/10 02:02:23;;;;;;;1.10;1.00;;;14.60;94.70;;;;;;4997115;28;20530;-82
2022/07/10 02:04:49;;;;;;;0.90;0.80;;;14.60;94.70;;;;;;4994802;28;20420;-82
2022/07/10 02:07:17;;;;;;;0.90;0.80;;;14.60;94.20;;;;;;4994923;28;20254;-82
2022/07/10 02:09:43;;;;;;;0.80;0.80;;;14.60;94.20;;;;;;4994702;28;20268;-82
2022/07/10 02:12:10;;;;;;;0.90;0.80;;;14.60;94.50;;;;;;4995062;28;20475;-82
2022/07/10 02:14:37;;;;;;;0.73;0.73;;;14.60;94.90;;;;;;4994842;28;20420;-81
2022/07/10 02:17:04;;;;;;;0.70;0.70;;;14.60;94.80;;;;;;4994530;28;20420;-82
2022/07/10 02:19:29;;;;;;;0.83;0.77;;;14.60;95.00;;;;;;5012433;28;20432;-81
2022/07/10 02:21:55;;;;;;;1.00;0.90;;;14.60;95.10;;;;;;5012624;28;21004;-82
2022/07/10 02:24:21;;;;;;;1.00;0.90;;;14.50;95.00;;;;;;4996340;28;20205;-82
2022/07/10 02:26:47;;;;;;;1.00;0.90;;;14.50;95.00;;;;;;4998187;28;20979;-82
2022/07/10 02:29:13;;;;;;;1.00;0.90;;;14.50;94.90;;;;;;5015882;28;20205;-83
2022/07/10 02:31:41;;;;;;;1.00;0.90;;;14.50;95.10;;;;;;4998216;28;20474;-82
2022/07/10 02:34:09;;;;;;;0.90;0.80;;;14.50;95.00;;;;;;5015612;28;20169;-82
2022/07/10 02:36:36;;;;;;;1.00;0.90;;;14.50;95.50;;;;;;4999071;28;20408;-82
2022/07/10 02:39:02;;;;;;;0.90;0.80;;;14.50;95.50;;;;;;4998354;28;20432;-83
2022/07/10 02:41:29;;;;;;;0.93;0.87;;;14.50;95.30;;;;;;4998463;28;20416;-82
2022/07/10 02:43:56;;;;;;;1.17;1.07;;;14.50;95.30;;;;;;4998611;28;20490;-82
2022/07/10 02:46:22;;;;;;;0.93;0.87;;;14.50;95.50;;;;;;4998789;28;20797;-82
2022/07/10 02:48:48;;;;;;;1.40;0.90;;;14.50;95.60;;;;;;4998855;28;20463;-82
2022/07/10 02:51:14;;;;;;;0.90;0.80;;;14.50;95.80;;;;;;4999231;28;20189;-82
2022/07/10 02:53:39;;;;;;;0.90;0.80;;;14.40;95.90;;;;;;4998437;28;20180;-82
2022/07/10 02:56:05;;;;;;;0.70;0.70;;;14.40;96.00;;;;;;4998373;28;20419;-82
2022/07/10 02:58:32;;;;;;;0.80;0.80;;;14.40;96.00;;;;;;4998419;28;20204;-82
2022/07/10 03:00:57;;;;;;;1.00;0.90;;;14.40;96.00;;;;;;4998169;28;21053;-82
2022/07/10 03:03:30;;;;;;;1.03;0.93;;;14.40;96.10;;;;;;4997072;28;20547;-82
2022/07/10 03:05:57;;;;;;;0.90;0.80;;;14.30;96.20;;;;;;4998923;28;20189;-81
2022/07/10 03:08:29;;;;;;;0.90;0.80;;;14.30;96.40;;;;;;4997808;28;21017;-82
2022/07/10 03:10:57;;;;;;;1.17;1.10;;;14.30;96.30;;;;;;4997510;28;20420;-82
2022/07/10 03:13:29;;;;;;;0.80;0.70;;;14.30;96.40;;;;;;4997339;28;20427;-82
2022/07/10 03:15:57;;;;;;;0.83;0.80;;;14.30;96.40;;;;;;4996680;28;20832;-83
2022/07/10 03:18:27;;;;;;;0.80;0.80;;;14.30;96.60;;;;;;4994925;28;20442;-83
2022/07/10 03:20:59;;;;;;;0.97;0.90;;;14.30;96.60;;;;;;4985555;28;20926;-82
2022/07/10 03:23:26;;;;;;;0.97;0.87;;;14.30;96.70;;;;;;4996258;28;20432;-82
2022/07/10 03:25:56;;;;;;;1.00;0.90;;;14.40;96.90;;;;;;4996324;28;20439;-83
2022/07/10 03:28:28;;;;;;;1.00;0.90;;;14.40;96.90;;;;;;4995779;28;20500;-82
2022/07/10 03:30:56;;;;;;;1.20;1.10;;;14.40;96.80;;;;;;4997268;28;20420;-82
2022/07/10 03:33:25;;;;;;;1.00;0.90;;;14.30;96.90;;;;;;4996582;28;20569;-82
2022/07/10 03:35:56;;;;;;;0.90;0.80;;;14.30;97.00;;;;;;4996206;28;20412;-82
2022/07/10 03:38:24;;;;;;;0.90;0.80;;;14.30;97.30;;;;;;4996256;28;20452;-82
2022/07/10 03:40:50;;;;;;;0.90;0.80;;;14.30;97.30;;;;;;4996540;28;20423;-81
2022/07/10 03:43:19;;;;;;;1.40;1.00;;;14.30;97.30;;;;;;4997771;28;20412;-82
2022/07/10 03:45:47;;;;;;;1.03;0.93;;;14.30;97.30;;;;;;5001351;28;20173;-82
2022/07/10 03:48:18;;;;;;;1.00;0.90;;;14.30;97.30;;;;;;4996272;28;20559;-82
2022/07/10 03:50:50;;;;;;;0.90;0.80;;;14.30;97.30;;;;;;4996455;28;20500;-82
2022/07/10 03:53:37;;;;;;;0.90;0.80;;;14.30;97.30;;;;;;5013880;28;20423;-82
2022/07/10 03:59:38;;;;;;;0.70;0.70;;;14.30;97.30;;;;;;5013597;28;20466;-82
2022/07/10 04:02:07;;;;;;;1.10;1.00;;;14.40;97.30;;;;;;4994853;28;20468;-82
2022/07/10 04:04:59;;;;;;;;;;;;;;;;;;;;;
2022/07/10 04:07:28;;;;;;;0.90;0.80;;;14.40;97.30;;;;;;5013678;28;20699;-82
2022/07/10 04:10:07;;;;;;;0.93;0.87;;;14.40;97.30;;;;;;4995683;28;20551;-82
2022/07/10 04:13:26;;;;;;;0.90;0.80;;;14.40;97.30;;;;;;4995784;28;20960;-82
2022/07/10 04:15:58;;;;;;;0.93;0.83;;;14.40;97.30;;;;;;4995398;28;20424;-81
2022/07/10 04:18:27;;;;;;;0.90;0.80;;;14.40;97.30;;;;;;4995743;28;20816;-82
2022/07/10 04:20:59;;;;;;;1.00;0.90;;;14.40;97.30;;;;;;4996046;28;20784;-82
2022/07/10 04:23:27;;;;;;;1.00;0.90;;;14.40;97.30;;;;;;5013969;28;21331;-81
2022/07/10 04:26:18;;;;;;;0.70;0.70;;;14.40;97.30;;;;;;4982371;28;20420;-82
2022/07/10 04:28:47;;;;;;;1.00;0.90;;;14.40;97.30;;;;;;4995105;28;20544;-82
2022/07/10 04:31:17;;;;;;;0.97;0.87;;;14.30;97.30;;;;;;4995471;28;20928;-82
2022/07/10 04:33:57;;;;;;;0.90;0.80;;;14.30;97.30;;;;;;4995582;28;20891;-82
2022/07/10 04:36:37;;;;;;;;;;;;;;;;;;;;;
2022/07/10 04:39:07;;;;;;;1.00;0.90;;;14.30;97.30;;;;;;5013106;28;20439;-82
2022/07/10 04:41:36;;;;;;;0.90;0.80;;;14.30;97.30;;;;;;4995418;28;20510;-82
2022/07/10 04:44:17;;;;;;;0.90;0.80;;;14.30;97.30;;;;;;4996434;28;20463;-82
2022/07/10 04:46:56;;;;;;;1.10;1.00;;;14.20;97.30;;;;;;4993617;28;20452;-82
2022/07/10 04:49:28;;;;;;;0.90;0.80;;;14.20;97.30;;;;;;4994910;28;20466;-84
2022/07/10 04:52:35;;;;;;;1.00;0.90;;;14.20;97.30;;;;;;5012857;28;20462;-82
2022/07/10 04:55:18;;;;;;;0.90;0.80;;;14.20;97.30;;;;;;4995293;28;20511;-82
2022/07/10 04:57:47;;;;;;;1.00;0.90;;;14.20;97.30;;;;;;4995376;28;20432;-82
2022/07/10 05:00:49;;;;;;;0.80;0.80;;;14.20;97.30;;;;;;4995903;28;20413;-84
2022/07/10 05:03:18;;;;;;;0.87;0.83;;;14.20;97.30;;;;;;4991139;28;20479;-81
2022/07/10 05:09:19;;;;;;;1.00;0.90;;;14.20;97.30;;;;;;4977748;28;20527;-82
2022/07/10 05:11:47;;;;;;;1.00;0.90;;;14.10;97.30;;;;;;4991207;28;20421;-83
2022/07/10 05:14:30;;;;;;;;;;;;;;;;;;;;;
2022/07/10 05:16:57;;;;;;;0.90;0.80;;;14.10;97.30;;;;;;4992086;28;20440;-83
2022/07/10 05:19:27;;;;;;;1.00;0.90;;;14.00;97.30;;;;;;4990332;28;20425;-83
2022/07/10 05:21:57;;;;;;;1.00;0.90;;;14.00;97.30;;;;;;4988521;28;20964;-81
2022/07/10 05:24:39;;;;;;;0.77;0.73;;;14.00;97.30;;;;;;4982790;28;20439;-81
2022/07/10 05:27:07;;;;;;;1.00;0.90;;;14.00;97.30;;;;;;4991329;28;20448;-83
2022/07/10 05:33:08;;;;;;;1.20;1.10;;;14.00;97.30;;;;;;4981902;28;20432;-81
2022/07/10 05:35:58;;;;;;;1.00;0.90;;;14.00;97.30;;;;;;4993432;28;20440;-82
2022/07/10 05:39:27;;;;;;;1.00;0.90;;;14.10;97.30;;;;;;4991534;28;20500;-82
2022/07/10 05:42:00;;;;;;;1.10;1.00;;;14.00;97.30;;;;;;4968321;28;20429;-83
2022/07/10 05:44:38;;;;;;;1.00;0.90;;;13.90;97.30;;;;;;4990967;28;20480;-81
2022/07/10 05:47:07;;;;;;;1.00;0.90;;;13.80;97.30;;;;;;4990741;28;20516;-82
2022/07/10 05:49:37;;;;;;;0.93;0.87;;;13.80;97.30;;;;;;4990911;28;20456;-82
2022/07/10 05:52:07;;;;;;;1.00;0.90;;;13.70;97.30;;;;;;4991580;28;20420;-81
2022/07/10 05:54:39;;;;;;;1.00;0.90;;;13.70;97.30;;;;;;4991190;28;20428;-81
2022/07/10 05:57:08;;;;;;;0.97;0.87;;;13.70;97.30;;;;;;4977903;28;20461;-81
2022/07/10 05:59:37;;;;;;;0.80;0.80;;;13.70;97.30;;;;;;4990696;28;20433;-82
2022/07/10 06:02:56;;;;;;;0.93;0.83;;;13.60;97.30;;;;;;4993871;28;20460;-84
2022/07/10 06:05:28;;;;;;;1.07;0.97;;;13.60;97.30;;;;;;4981873;28;20463;-82
2022/07/10 06:07:57;;;;;;;1.00;0.90;;;13.50;97.30;;;;;;4994428;28;20459;-81
2022/07/10 06:10:27;;;;;;;1.00;0.90;;;13.40;97.30;;;;;;4982212;28;20435;-82
2022/07/10 06:12:57;;;;;;;0.90;0.80;;;13.40;97.30;;;;;;4995314;28;20420;-81
2022/07/10 06:15:27;;;;;;;1.00;0.90;;;13.40;97.30;;;;;;4995949;28;20428;-81
2022/07/10 06:17:57;;;;;;;0.97;0.87;;;13.40;97.30;;;;;;4996772;28;20432;-81
2022/07/10 06:20:27;;;;;;;1.10;1.00;;;13.40;97.30;;;;;;4995747;28;20914;-81
2022/07/10 06:22:55;;;;;;;0.77;0.73;;;13.40;97.30;;;;;;4994716;28;20418;-81
2022/07/10 06:25:21;;;;;;;0.70;0.70;;;13.30;97.30;;;;;;4988160;28;20927;-82
2022/07/10 06:27:47;;;;;;;1.00;0.90;;;13.30;97.30;;;;;;4975753;28;20429;-82
2022/07/10 06:30:12;;;;;;;1.00;0.90;;;13.30;97.30;;;;;;4993407;28;20173;-81
2022/07/10 06:32:39;;;;;;;1.00;0.90;;;13.30;97.30;;;;;;4994512;28;20185;-81
2022/07/10 06:35:06;;;;;;;0.87;0.80;;;13.30;97.30;;;;;;4994585;28;20177;-81
2022/07/10 06:37:32;;;;;;;0.80;0.80;;;13.40;97.30;;;;;;4995105;28;20452;-82
2022/07/10 06:39:58;;;;;;;1.93;0.97;;;13.40;97.30;;;;;;4996294;28;20412;-82
2022/07/10 06:42:24;;;;;;;0.90;0.80;;;13.40;97.30;;;;;;5022542;28;20431;-81
2022/07/10 06:44:49;;;;;;;1.80;1.33;;;13.50;97.30;;;;;;5004009;28;20201;-83
2022/07/10 06:50:07;;;;;;;1.20;1.10;;;13.60;97.30;;;;;;5011904;28;20382;-82
2022/07/10 06:53:17;;;;;;;1.20;1.10;;;13.60;97.30;;;;;;4993455;28;21002;-82
2022/07/10 06:56:20;;;;;;;2.07;1.30;;;13.70;97.30;;;;;;4972303;28;20796;-82
2022/07/10 06:58:49;;;;;;;0.80;0.80;;;13.70;97.30;;;;;;4895637;29;20473;-82
2022/07/10 07:01:18;;;;;;;0.90;0.80;;;13.80;97.30;;;;;;4911701;29;20432;-82
2022/07/10 07:03:52;;;;;;;2.40;1.30;;;14.00;97.30;;;;;;4895476;29;20927;-82
2022/07/10 07:06:19;;;;;;;3.60;1.10;;;14.10;97.30;;;;;;4892189;29;20511;-82
2022/07/10 07:09:17;;;;;;;1.00;0.90;;;14.10;97.30;;;;;;4895790;29;20476;-82
2022/07/10 07:12:00;;;;;;;;;;;;;;;;;;;;;
2022/07/10 07:14:58;;;;;;;0.97;0.87;;;14.30;97.30;;;;;;4876092;29;20923;-83
2022/07/10 07:23:11;;;;;;;0.90;0.80;;;14.50;97.30;;;;;;4986523;28;20411;-82
2022/07/10 07:25:51;;;;;;;;;;;;;;;;;;;;;
2022/07/10 07:28:28;;;;;;;0.90;0.80;;;14.60;97.30;;;;;;5004554;28;21016;-82
2022/07/10 07:30:59;;;;;;;1.03;0.93;;;14.60;97.30;;;;;;4996672;28;20484;-81
2022/07/10 07:33:28;;;;;;;1.07;0.97;;;14.60;97.30;;;;;;4995982;28;20507;-82
2022/07/10 07:35:57;;;;;;;0.77;0.77;;;14.60;97.30;;;;;;4996605;28;20459;-83
2022/07/10 07:39:00;;;;;;;;;;;;;;;;;;;;;
2022/07/10 07:41:29;;;;;;;0.87;0.80;;;14.70;97.30;;;;;;5013709;28;20414;-81
2022/07/10 07:44:08;;;;;;;0.90;0.80;;;14.70;97.30;;;;;;4998392;28;20431;-81
2022/07/10 07:47:10;;;;;;;;;;;;;;;;;;;;;
2022/07/10 07:49:37;;;;;;;0.90;0.80;;;14.90;97.30;;;;;;5011003;28;20452;-82
2022/07/10 07:52:18;;;;;;;0.97;0.87;;;15.00;97.30;;;;;;4987808;28;20416;-82
2022/07/10 07:54:47;;;;;;;0.90;0.80;;;15.10;97.30;;;;;;5014972;28;20932;-82
2022/07/10 07:57:28;;;;;;;1.00;0.90;;;15.20;97.30;;;;;;5013714;28;20432;-81
2022/07/10 07:59:58;;;;;;;1.00;0.90;;;15.20;97.30;;;;;;4996666;28;20478;-83
2022/07/10 08:02:27;;;;;;;1.00;0.90;;;15.30;97.30;;;;;;4996509;28;20460;-82
2022/07/10 08:05:46;;;;;;;0.90;0.80;;;15.30;97.30;;;;;;4996360;28;20431;-82
2022/07/10 08:08:18;;;;;;;0.90;0.80;;;15.40;97.30;;;;;;4987173;28;20997;-81
2022/07/10 08:10:47;;;;;;;0.90;0.80;;;15.40;97.30;;;;;;4996111;28;20488;-81
2022/07/10 08:13:50;;;;;;;;;;;;;;;;;;;;;
2022/07/10 08:16:18;;;;;;;0.90;0.80;;;15.40;97.30;;;;;;4960668;28;20804;-82
2022/07/10 08:18:50;;;;;;;1.00;0.90;;;15.40;97.30;;;;;;4996095;28;20795;-83
2022/07/10 08:21:17;;;;;;;1.00;0.90;;;15.40;97.30;;;;;;5013172;28;20424;-81
2022/07/10 08:24:06;;;;;;;0.90;0.80;;;15.40;97.30;;;;;;5013310;28;20581;-82
2022/07/10 08:26:38;;;;;;;1.00;0.90;;;15.50;97.30;;;;;;4995431;28;20531;-82
2022/07/10 08:29:07;;;;;;;1.10;1.00;;;15.50;97.30;;;;;;4995341;28;21128;-82
2022/07/10 08:31:39;;;;;;;1.73;1.63;;;15.50;97.30;;;;;;5007241;28;20518;-82
2022/07/10 08:34:08;;;;;;;0.90;0.80;;;15.60;97.30;;;;;;4995621;28;20870;-82
2022/07/10 08:36:38;;;;;;;1.00;0.90;;;15.60;97.20;;;;;;5013666;28;20534;-82
2022/07/10 08:39:07;;;;;;;0.70;0.70;;;15.70;96.70;;;;;;4995512;28;20452;-83
2022/07/10 08:41:38;;;;;;;0.90;0.80;;;15.70;96.10;;;;;;4994810;28;20984;-83
2022/07/10 08:44:17;;;;;;;0.90;0.80;;;15.80;96.80;;;;;;5013001;28;20428;-83
2022/07/10 08:46:48;;;;;;;0.80;0.80;;;15.90;95.80;;;;;;4983012;28;20805;-82
2022/07/10 08:49:28;;;;;;;0.90;0.80;;;16.00;95.70;;;;;;4994144;28;20487;-83
2022/07/10 08:52:17;;;;;;;1.10;1.00;;;16.00;96.00;;;;;;4994665;28;20428;-84
2022/07/10 08:54:58;;;;;;;0.80;0.80;;;16.00;94.70;;;;;;4918637;29;20437;-82
2022/07/10 08:57:31;;;;;;;1.90;0.90;;;16.10;95.20;;;;;;4993546;28;20505;-82
2022/07/10 08:59:57;;;;;;;0.90;0.80;;;16.10;95.00;;;;;;4994118;28;20428;-82
2022/07/10 09:02:37;;;;;;;1.20;1.10;;;16.10;94.90;;;;;;4991060;28;20472;-82
2022/07/10 09:05:29;;;;;;;0.97;0.87;;;16.10;94.40;;;;;;4992563;28;21081;-82
2022/07/10 09:11:48;;;;;;;1.10;1.00;;;16.30;94.00;;;;;;4898266;29;20430;-83
2022/07/10 09:14:17;;;;;;;1.10;1.00;;;16.30;94.00;;;;;;4988246;28;20800;-83
2022/07/10 09:16:56;;;;;;;0.83;0.77;;;16.40;93.20;;;;;;4985247;28;20431;-82
2022/07/10 09:19:47;;;;;;;0.80;0.70;;;16.40;93.50;;;;;;4991430;28;20420;-82
2022/07/10 09:22:18;;;;;;;0.70;0.70;;;16.40;93.10;;;;;;4992352;28;20425;-82
2022/07/10 09:25:18;;;;;;;0.90;0.80;;;16.40;91.90;;;;;;4990840;28;20984;-83
2022/07/10 09:27:59;;;;;;;0.90;0.80;;;16.40;93.10;;;;;;4943768;28;20469;-83
2022/07/10 09:31:08;;;;;;;21.43;1.87;;;16.50;92.60;;;;;;4990093;28;20429;-82
2022/07/10 09:33:38;;;;;;;0.77;0.73;;;16.40;92.30;;;;;;4940376;28;20948;-83
2022/07/10 09:36:10;;;;;;;0.70;0.70;;;16.40;92.40;;;;;;4989738;28;20429;-82
2022/07/10 09:38:48;;;;;;;0.93;0.87;;;16.40;92.60;;;;;;4992982;28;20445;-82
2022/07/10 09:41:21;;;;;;;1.00;0.90;;;16.30;93.20;;;;;;4988593;28;20444;-82
2022/07/10 09:44:03;;;;;;;1.00;0.90;;;16.40;92.90;;;;;;4990372;28;20962;-82
2022/07/10 09:46:36;;;;;;;0.80;0.80;;;16.40;92.30;;;;;;4997873;28;20432;-82
2022/07/10 09:49:10;;;;;;;1.03;0.93;;;16.40;92.10;;;;;;4990247;28;20456;-82
2022/07/10 09:51:45;;;;;;;0.87;0.83;;;16.50;93.00;;;;;;4990014;28;20433;-81
2022/07/10 09:54:11;;;;;;;1.00;0.90;;;16.50;92.70;;;;;;4992124;28;20777;-83
2022/07/10 09:56:51;;;;;;;0.77;0.73;;;16.60;92.00;;;;;;4989998;28;20425;-82
2022/07/10 09:59:19;;;;;;;0.70;0.70;;;16.70;90.30;;;;;;4991411;28;20468;-82
2022/07/10 10:01:47;;;;;;;1.20;1.10;;;16.70;90.40;;;;;;4992045;28;20425;-82
2022/07/10 10:04:25;;;;;;;1.23;1.03;;;16.80;90.50;;;;;;4995001;28;20431;-82
2022/07/10 10:07:00;;;;;;;1.00;0.90;;;16.70;89.30;;;;;;4994715;28;20423;-82
2022/07/10 10:09:58;;;;;;;1.20;1.10;;;16.70;89.60;;;;;;4976147;28;20467;-81
2022/07/10 10:12:53;;;;;;;0.70;0.70;;;16.70;89.40;;;;;;4980984;28;20428;-81
2022/07/10 10:15:20;;;;;;;1.00;0.90;;;16.60;89.00;;;;;;4992851;28;20428;-81
2022/07/10 10:17:47;;;;;;;1.10;0.90;;;16.60;89.30;;;;;;4995582;28;20440;-80
2022/07/10 10:23:00;;;;;;;0.77;0.73;;;16.50;89.80;;;;;;5013197;28;20462;-81
2022/07/10 10:25:28;;;;;;;0.90;0.80;;;16.60;90.00;;;;;;4995086;28;20416;-81
2022/07/10 10:28:01;;;;;;;1.50;1.40;;;16.60;90.00;;;;;;4994192;28;20478;-81
2022/07/10 10:30:29;;;;;;;0.90;0.80;;;16.70;89.70;;;;;;5012369;28;20424;-82
2022/07/10 10:32:57;;;;;;;1.00;0.90;;;16.70;90.40;;;;;;4993771;28;20432;-80
2022/07/10 10:35:58;;;;;;;1.00;0.90;;;16.90;90.70;;;;;;4982579;28;20432;-81
2022/07/10 10:38:48;;;;;;;3.70;3.17;;;17.00;89.90;;;;;;4930608;29;20447;-82
2022/07/10 10:41:38;;;;;;;1.23;1.17;;;17.00;88.10;;;;;;5002956;28;20424;-81
2022/07/10 10:44:16;;;;;;;0.70;0.70;;;17.00;86.90;;;;;;4995858;28;20428;-81
2022/07/10 10:47:05;;;;;;;0.90;0.80;;;17.00;86.40;;;;;;4997375;28;20423;-82
2022/07/10 10:49:52;;;;;;;0.90;0.80;;;17.10;88.40;;;;;;4985608;28;20517;-82
2022/07/10 10:52:18;;;;;;;1.57;1.10;;;17.20;87.30;;;;;;5000584;28;20423;-82
2022/07/10 10:55:12;;;;;;;1.00;0.90;;;17.20;86.40;;;;;;4986870;28;20424;-81
2022/07/10 10:57:47;;;;;;;1.43;1.33;;;17.10;86.70;;;;;;4999139;28;20462;-81
2022/07/10 11:00:37;;;;;;;0.90;0.80;;;17.10;87.70;;;;;;5017104;28;20440;-82
2022/07/10 11:03:15;;;;;;;1.00;0.90;;;17.20;87.70;;;;;;4995120;28;20461;-81
2022/07/10 11:05:47;;;;;;;0.70;0.70;;;17.40;87.50;;;;;;4995801;28;20435;-81
2022/07/10 11:08:35;;;;;;;1.13;1.03;;;17.60;88.00;;;;;;4994951;28;20468;-81
2022/07/10 11:11:01;;;;;;;1.80;1.20;;;17.90;86.70;;;;;;4996758;28;20931;-81
2022/07/10 11:13:29;;;;;;;0.93;0.90;;;18.10;85.70;;;;;;4997771;28;20613;-81
2022/07/10 11:15:58;;;;;;;0.90;0.80;;;18.20;85.00;;;;;;4996881;28;20715;-82
2022/07/10 11:18:25;;;;;;;0.90;0.80;;;18.20;83.40;;;;;;4996898;28;20990;-81
2022/07/10 11:20:55;;;;;;;1.00;0.90;;;18.20;84.40;;;;;;4997986;28;20440;-80
2022/07/10 11:23:36;;;;;;;0.90;0.80;;;18.20;84.30;;;;;;4998036;28;20507;-80
2022/07/10 11:26:28;;;;;;;0.90;0.80;;;18.30;84.80;;;;;;4998226;28;20424;-79
2022/07/10 11:28:56;;;;;;;1.73;1.10;;;18.40;84.50;;;;;;4985822;28;20457;-80
2022/07/10 11:31:23;;;;;;;1.10;1.00;;;18.40;85.00;;;;;;4998006;28;20436;-80
2022/07/10 11:33:52;;;;;;;0.90;0.80;;;18.40;84.50;;;;;;4997777;28;20425;-81
2022/07/10 11:36:25;;;;;;;0.80;0.80;;;18.40;83.90;;;;;;4998914;28;20433;-81
2022/07/10 11:39:00;;;;;;;1.33;1.23;;;18.30;84.20;;;;;;4997677;28;20476;-80
2022/07/10 11:41:26;;;;;;;0.90;0.80;;;18.20;85.00;;;;;;4998197;28;20481;-80
2022/07/10 11:43:59;;;;;;;0.90;0.80;;;18.10;84.80;;;;;;4997313;28;20986;-80
2022/07/10 11:46:30;;;;;;;0.93;0.87;;;18.10;84.90;;;;;;4980383;28;20943;-80
2022/07/10 11:48:56;;;;;;;1.33;1.00;;;18.10;85.20;;;;;;4979728;28;20465;-81
2022/07/10 11:51:30;;;;;;;0.83;0.80;;;18.00;86.10;;;;;;4994148;28;20436;-81
2022/07/10 11:54:05;;;;;;;1.00;0.90;;;18.00;85.50;;;;;;4997749;28;20428;-81
2022/07/10 11:56:36;;;;;;;1.20;1.10;;;18.00;85.40;;;;;;4983579;28;20420;-80
2022/07/10 11:59:02;;;;;;;0.70;0.70;;;17.90;85.10;;;;;;5013975;28;20484;-81
2022/07/10 12:01:31;;;;;;;0.90;0.90;;;17.80;85.40;;;;;;4996871;28;20436;-81
2022/07/10 12:04:08;;;;;;;0.90;0.80;;;17.70;85.50;;;;;;4984229;28;20490;-80
2022/07/10 12:06:39;;;;;;;0.90;0.80;;;17.70;86.30;;;;;;4996814;28;20436;-81
2022/07/10 12:09:19;;;;;;;1.10;1.00;;;17.70;86.40;;;;;;4997927;28;20493;-81
2022/07/10 12:12:05;;;;;;;1.40;0.83;;;17.90;86.50;;;;;;4998690;28;20417;-80
2022/07/10 12:14:31;;;;;;;4.80;1.00;;;18.10;85.70;;;;;;4996474;28;20519;-80
2022/07/10 12:16:57;;;;;;;1.00;0.90;;;18.10;84.50;;;;;;4995239;28;20429;-81
2022/07/10 12:19:30;;;;;;;1.00;0.90;;;18.20;84.70;;;;;;4996307;28;20480;-81
2022/07/10 12:21:57;;;;;;;0.90;0.80;;;18.30;83.90;;;;;;4997490;28;20908;-81
2022/07/10 12:24:23;;;;;;;0.90;0.80;;;18.30;84.90;;;;;;4996334;28;20444;-80
2022/07/10 12:26:50;;;;;;;0.90;0.80;;;18.40;83.90;;;;;;4996365;28;20491;-80
2022/07/10 12:29:24;;;;;;;1.00;0.90;;;18.30;83.80;;;;;;4996359;28;20471;-81
2022/07/10 12:31:53;;;;;;;0.93;0.87;;;18.30;84.90;;;;;;4995108;28;20420;-81
2022/07/10 12:34:18;;;;;;;0.80;0.80;;;18.30;84.50;;;;;;4995826;28;20830;-81
2022/07/10 12:36:49;;;;;;;0.90;0.80;;;18.20;84.80;;;;;;4995320;28;20431;-81
2022/07/10 12:39:17;;;;;;;1.10;1.00;;;18.20;84.80;;;;;;4990737;28;20289;-81
2022/07/10 12:42:03;;;;;;;0.77;0.70;;;18.20;85.10;;;;;;4987628;28;20433;-81
2022/07/10 12:44:39;;;;;;;0.90;0.80;;;18.10;84.60;;;;;;4996329;28;20425;-81
2022/07/10 12:47:08;;;;;;;1.10;1.00;;;18.10;84.80;;;;;;4997010;28;20515;-80
2022/07/10 12:50:01;;;;;;;0.70;0.70;;;18.20;85.30;;;;;;4996974;28;20464;-82
2022/07/10 12:52:29;;;;;;;0.90;0.80;;;18.30;84.30;;;;;;4996116;28;20418;-80
2022/07/10 12:55:15;;;;;;;0.90;0.80;;;18.60;85.00;;;;;;4996383;28;20431;-81
2022/07/10 12:57:48;;;;;;;0.77;0.73;;;18.80;83.50;;;;;;4985033;28;20500;-81
2022/07/10 13:00:18;;;;;;;0.70;0.70;;;19.00;83.40;;;;;;4996715;28;20421;-81
2022/07/10 13:02:44;;;;;;;0.90;0.80;;;19.20;82.70;;;;;;5005593;28;20503;-80
2022/07/10 13:05:10;;;;;;;0.90;0.80;;;19.30;82.60;;;;;;4999322;28;20435;-80
2022/07/10 13:07:37;;;;;;;0.70;0.70;;;19.30;82.10;;;;;;4998418;28;20448;-82
2022/07/10 13:10:03;;;;;;;0.90;0.80;;;19.30;82.40;;;;;;4998602;28;20216;-81
2022/07/10 13:12:28;;;;;;;1.00;0.90;;;19.20;81.60;;;;;;4999572;28;20435;-81
2022/07/10 13:14:54;;;;;;;7.70;2.17;;;19.20;80.70;;;;;;4997627;28;20408;-80
2022/07/10 13:17:20;;;;;;;1.13;1.10;;;19.10;80.50;;;;;;5005300;28;20240;-81
2022/07/10 13:19:46;;;;;;;1.13;1.03;;;19.10;81.80;;;;;;4999265;28;20205;-80
2022/07/10 13:22:12;;;;;;;0.80;0.80;;;19.10;82.60;;;;;;4998170;28;20251;-80
2022/07/10 13:24:37;;;;;;;1.00;0.90;;;19.10;81.90;;;;;;4998267;28;20428;-81
2022/07/10 13:27:03;;;;;;;1.10;1.00;;;19.10;81.40;;;;;;4996874;28;20243;-81
2022/07/10 13:29:29;;;;;;;0.90;0.80;;;19.40;82.10;;;;;;4995941;28;20211;-82
2022/07/10 13:31:54;;;;;;;0.70;0.70;;;19.80;82.00;;;;;;4996053;28;20184;-82
2022/07/10 13:34:20;;;;;;;0.70;0.70;;;20.00;80.90;;;;;;4995236;28;20590;-82
2022/07/10 13:36:45;;;;;;;1.10;1.00;;;20.10;80.10;;;;;;5013065;28;20621;-80
2022/07/10 13:39:11;;;;;;;0.70;0.70;;;20.20;80.10;;;;;;4995433;28;20196;-81
2022/07/10 13:41:37;;;;;;;0.70;0.70;;;20.40;79.30;;;;;;4995785;28;20177;-81
2022/07/10 13:44:02;;;;;;;0.70;0.70;;;20.40;78.90;;;;;;4995281;28;20635;-82
2022/07/10 13:46:28;;;;;;;1.00;0.90;;;20.50;80.40;;;;;;4996431;28;20185;-82
2022/07/10 13:48:54;;;;;;;0.90;0.80;;;20.60;78.10;;;;;;4995640;28;20683;-81
2022/07/10 13:51:20;;;;;;;0.90;0.80;;;20.50;78.40;;;;;;4995596;28;20185;-82
2022/07/10 13:53:46;;;;;;;0.87;0.80;;;20.50;79.50;;;;;;4996038;28;20455;-81